Time;durP1;ratioP1;P1;durP2;ratioP2;P2;SDS_P1;SDS_P2;PMS_P1;PMS_P2;Temp;Humidity;BMP_temperature;BMP_pressure;BME280_temperature;BME280_humidity;BME280_pressure;Samples;Min_cycle;Max_cycle;Signal;HPM_P1;HPM_P2
2023/12/10 00:00:41;;;;;;;9.57;9.17;;;9.20;1.00;;;;;;5021549;28;20565;-67
2023/12/10 00:03:08;;;;;;;9.50;9.10;;;9.10;1.00;;;;;;5025112;28;20199;-67
2023/12/10 00:05:35;;;;;;;9.53;9.13;;;9.10;1.00;;;;;;5037138;28;20203;-66
2023/12/10 00:08:03;;;;;;;9.40;9.00;;;9.00;1.00;;;;;;5021843;28;20198;-68
2023/12/10 00:10:30;;;;;;;9.30;8.90;;;9.00;1.00;;;;;;5031532;28;20192;-67
2023/12/10 00:12:57;;;;;;;9.60;9.20;;;9.00;1.00;;;;;;5017218;28;20252;-66
2023/12/10 00:15:24;;;;;;;9.30;8.90;;;9.00;1.00;;;;;;5026039;28;20197;-63
2023/12/10 00:17:51;;;;;;;9.60;9.20;;;9.10;99.90;;;;;;5022416;28;20251;-63
2023/12/10 00:20:18;;;;;;;9.43;9.03;;;9.10;99.90;;;;;;5006890;28;20258;-63
2023/12/10 00:22:46;;;;;;;9.80;9.40;;;9.20;99.90;;;;;;5014058;28;20720;-64
2023/12/10 00:25:13;;;;;;;10.10;9.60;;;9.10;99.90;;;;;;5027454;28;20680;-63
2023/12/10 00:27:40;;;;;;;10.17;9.67;;;9.20;99.90;;;;;;5028020;28;20298;-66
2023/12/10 00:30:07;;;;;;;10.00;9.50;;;9.10;99.90;;;;;;5033783;28;20212;-68
2023/12/10 00:32:35;;;;;;;10.47;9.97;;;9.20;99.90;;;;;;5015411;28;20215;-68
2023/12/10 00:35:03;;;;;;;11.00;10.50;;;9.20;99.90;;;;;;5025947;28;20191;-69
2023/12/10 00:37:30;;;;;;;11.07;10.57;;;9.10;99.90;;;;;;5031131;28;20185;-68
2023/12/10 00:39:58;;;;;;;11.37;10.87;;;9.20;99.90;;;;;;5023383;28;20188;-68
2023/12/10 00:42:25;;;;;;;11.90;11.30;;;9.00;99.90;;;;;;5035637;28;20522;-68
2023/12/10 00:44:53;;;;;;;12.10;11.50;;;9.00;99.90;;;;;;5028044;28;20271;-67
2023/12/10 00:47:20;;;;;;;12.10;11.50;;;9.10;99.90;;;;;;5030128;28;20196;-67
2023/12/10 00:49:47;;;;;;;12.33;11.73;;;9.10;99.90;;;;;;5035369;28;20203;-67
2023/12/10 00:52:14;;;;;;;12.50;11.90;;;9.10;99.90;;;;;;5027688;28;20295;-68
2023/12/10 00:54:41;;;;;;;12.50;11.90;;;9.10;99.90;;;;;;5022262;28;20953;-68
2023/12/10 00:57:12;;;;;;;12.40;11.80;;;9.00;99.90;;;;;;5030890;28;20229;-63
2023/12/10 00:59:39;;;;;;;12.37;11.77;;;9.10;99.90;;;;;;5032573;28;20196;-64
2023/12/10 01:02:06;;;;;;;12.43;11.83;;;9.00;99.90;;;;;;5032643;28;20308;-62
2023/12/10 01:04:35;;;;;;;12.80;12.20;;;9.00;99.90;;;;;;5008017;28;20215;-63
2023/12/10 01:07:02;;;;;;;12.60;12.00;;;9.00;99.90;;;;;;5030229;28;20295;-65
2023/12/10 01:09:29;;;;;;;12.50;11.90;;;9.10;99.90;;;;;;5030777;28;20181;-72
2023/12/10 01:11:56;;;;;;;12.67;12.07;;;9.10;99.90;;;;;;4998664;28;20228;-63
2023/12/10 01:14:23;;;;;;;12.63;12.03;;;9.10;99.90;;;;;;5028452;28;20212;-63
2023/12/10 01:16:50;;;;;;;12.80;12.20;;;9.20;99.90;;;;;;5034534;28;20206;-63
2023/12/10 01:19:17;;;;;;;12.60;12.00;;;9.30;99.90;;;;;;5039588;28;20196;-63
2023/12/10 01:21:45;;;;;;;12.87;12.27;;;9.20;99.90;;;;;;5031260;28;20208;-63
2023/12/10 01:24:18;;;;;;;12.67;12.07;;;9.10;99.90;;;;;;5027824;28;20295;-64
2023/12/10 01:26:45;;;;;;;12.60;12.00;;;9.00;99.90;;;;;;5017315;28;20288;-63
2023/12/10 01:29:12;;;;;;;12.77;12.17;;;9.00;99.90;;;;;;5034506;28;20218;-63
2023/12/10 01:31:39;;;;;;;12.60;12.00;;;9.10;99.90;;;;;;5027282;28;20197;-65
2023/12/10 01:34:06;;;;;;;12.70;12.10;;;9.20;99.90;;;;;;5026873;28;20200;-64
2023/12/10 01:36:34;;;;;;;12.80;12.20;;;9.10;99.90;;;;;;5032812;28;20195;-63
2023/12/10 01:39:01;;;;;;;12.70;12.10;;;9.20;99.90;;;;;;5034856;28;20195;-67
2023/12/10 01:41:28;;;;;;;13.00;12.30;;;9.20;99.90;;;;;;5017690;28;20216;-67
2023/12/10 01:43:55;;;;;;;13.00;12.30;;;9.30;99.90;;;;;;5020164;28;20200;-67
2023/12/10 01:46:22;;;;;;;12.73;12.13;;;9.30;99.90;;;;;;5006615;28;20361;-68
2023/12/10 01:48:51;;;;;;;12.40;11.80;;;9.20;99.90;;;;;;5009102;28;20336;-68
2023/12/10 01:51:18;;;;;;;13.10;12.40;;;9.20;99.90;;;;;;5035883;28;20312;-70
2023/12/10 01:53:46;;;;;;;12.60;12.00;;;9.10;99.90;;;;;;5027591;28;20201;-67
2023/12/10 01:56:13;;;;;;;12.60;12.00;;;9.20;99.90;;;;;;5033220;28;20642;-68
2023/12/10 01:58:40;;;;;;;12.43;11.83;;;9.20;99.90;;;;;;5033776;28;20192;-68
2023/12/10 02:01:07;;;;;;;12.47;11.87;;;9.30;99.90;;;;;;5036452;28;20212;-68
2023/12/10 02:03:35;;;;;;;12.60;12.00;;;9.30;99.90;;;;;;5021565;28;20204;-68
2023/12/10 02:06:03;;;;;;;12.40;11.80;;;9.20;99.90;;;;;;5031131;28;20537;-68
2023/12/10 02:08:30;;;;;;;12.40;11.80;;;9.20;99.90;;;;;;5026035;28;20606;-69
2023/12/10 02:10:58;;;;;;;12.40;11.80;;;9.20;99.90;;;;;;5010011;28;20238;-69
2023/12/10 02:13:26;;;;;;;12.47;11.87;;;9.30;99.90;;;;;;5023708;28;20640;-69
2023/12/10 02:15:53;;;;;;;12.30;11.70;;;9.30;99.90;;;;;;5026906;28;20639;-69
2023/12/10 02:18:21;;;;;;;12.50;11.90;;;9.30;99.90;;;;;;5023530;28;20326;-68
2023/12/10 02:20:48;;;;;;;12.33;11.73;;;9.40;99.90;;;;;;5026085;28;20581;-69
2023/12/10 02:23:33;;;;;;;12.27;11.67;;;9.20;99.90;;;;;;5031469;28;20231;-69
2023/12/10 02:26:01;;;;;;;12.53;11.93;;;9.20;99.90;;;;;;5033428;28;20266;-68
2023/12/10 02:28:28;;;;;;;12.60;12.00;;;9.30;99.90;;;;;;5027181;28;20200;-69
2023/12/10 02:30:55;;;;;;;12.60;12.00;;;9.20;99.90;;;;;;5039094;28;20222;-68
2023/12/10 02:33:22;;;;;;;12.50;11.90;;;9.30;99.90;;;;;;5032245;28;20181;-68
2023/12/10 02:35:50;;;;;;;12.60;12.00;;;9.30;99.90;;;;;;5030635;28;20215;-68
2023/12/10 02:38:20;;;;;;;12.60;12.00;;;9.30;99.90;;;;;;5026441;28;20556;-69
2023/12/10 02:40:49;;;;;;;12.43;11.83;;;9.20;99.90;;;;;;5042383;28;20196;-68
2023/12/10 02:43:17;;;;;;;12.20;11.60;;;9.20;99.90;;;;;;5038521;28;20242;-68
2023/12/10 02:45:44;;;;;;;12.20;11.60;;;9.20;99.90;;;;;;5026720;28;20533;-68
2023/12/10 02:48:11;;;;;;;12.10;11.50;;;9.20;99.90;;;;;;5030490;28;20813;-66
2023/12/10 02:50:38;;;;;;;12.30;11.70;;;9.20;99.90;;;;;;5022598;28;20200;-65
2023/12/10 02:53:05;;;;;;;12.17;11.57;;;9.20;99.90;;;;;;5034902;28;20200;-66
2023/12/10 02:55:32;;;;;;;12.00;11.40;;;9.10;99.90;;;;;;5039595;28;20196;-65
2023/12/10 02:57:59;;;;;;;12.10;11.50;;;9.00;99.90;;;;;;5032033;28;20231;-66
2023/12/10 03:04:29;;;;;;;12.10;11.50;;;8.90;99.90;;;;;;5023234;28;20778;-63
2023/12/10 03:06:57;;;;;;;11.80;11.20;;;8.90;99.90;;;;;;5029106;28;20760;-63
2023/12/10 03:09:24;;;;;;;11.67;11.07;;;8.90;99.90;;;;;;5025256;28;20219;-64
2023/12/10 03:11:51;;;;;;;11.63;11.03;;;8.90;99.90;;;;;;5013205;28;20705;-64
2023/12/10 03:14:18;;;;;;;11.83;11.23;;;8.80;99.90;;;;;;5034575;28;20254;-64
2023/12/10 03:16:45;;;;;;;11.70;11.10;;;8.80;99.90;;;;;;5023653;28;20211;-65
2023/12/10 03:19:12;;;;;;;11.67;11.07;;;8.80;99.90;;;;;;5021805;28;20550;-65
2023/12/10 03:21:39;;;;;;;11.70;11.10;;;8.90;99.90;;;;;;5010244;28;20323;-64
2023/12/10 03:24:06;;;;;;;11.93;11.33;;;8.70;99.90;;;;;;5033536;28;20203;-65
2023/12/10 03:26:33;;;;;;;11.87;11.27;;;8.80;99.90;;;;;;5027273;28;20621;-64
2023/12/10 03:29:00;;;;;;;12.10;11.50;;;8.80;99.90;;;;;;5003029;28;20231;-64
2023/12/10 03:31:27;;;;;;;11.87;11.27;;;8.80;99.90;;;;;;5015394;28;20783;-64
2023/12/10 03:33:54;;;;;;;12.00;11.40;;;8.80;99.90;;;;;;5025420;28;20637;-65
2023/12/10 03:36:22;;;;;;;12.00;11.40;;;8.90;99.90;;;;;;5015499;28;20561;-67
2023/12/10 03:38:49;;;;;;;11.67;11.07;;;8.90;99.90;;;;;;5016300;28;20205;-64
2023/12/10 03:41:16;;;;;;;12.00;11.40;;;8.90;99.90;;;;;;5033820;28;20310;-66
2023/12/10 03:43:43;;;;;;;12.20;11.60;;;8.80;99.90;;;;;;5034748;28;20192;-66
2023/12/10 03:46:10;;;;;;;12.20;11.60;;;8.80;99.90;;;;;;5029003;28;20244;-66
2023/12/10 03:48:37;;;;;;;11.70;11.10;;;8.80;99.90;;;;;;5037672;28;20192;-63
2023/12/10 03:51:05;;;;;;;11.60;11.00;;;8.80;99.90;;;;;;5039841;28;20292;-64
2023/12/10 03:53:32;;;;;;;11.30;10.80;;;8.80;99.90;;;;;;5020459;28;20193;-66
2023/12/10 03:55:59;;;;;;;11.20;10.70;;;8.80;99.90;;;;;;5035847;28;20354;-65
2023/12/10 03:58:26;;;;;;;11.47;10.93;;;8.70;99.90;;;;;;5022081;28;20228;-70
2023/12/10 04:00:53;;;;;;;11.80;11.20;;;8.70;99.90;;;;;;5023182;28;20787;-70
2023/12/10 04:03:20;;;;;;;11.70;11.10;;;8.60;99.90;;;;;;5026500;28;20711;-70
2023/12/10 04:05:47;;;;;;;11.40;10.90;;;8.50;99.90;;;;;;5027750;28;20652;-69
2023/12/10 04:08:14;;;;;;;10.90;10.40;;;8.50;99.90;;;;;;5029806;28;20189;-70
2023/12/10 04:10:41;;;;;;;10.80;10.30;;;8.50;99.90;;;;;;5041763;28;20667;-70
2023/12/10 04:13:08;;;;;;;10.70;10.20;;;8.40;99.90;;;;;;5028640;28;20579;-70
2023/12/10 04:15:35;;;;;;;10.70;10.20;;;8.30;99.90;;;;;;5039693;28;20261;-69
2023/12/10 04:18:03;;;;;;;10.50;10.00;;;8.30;99.90;;;;;;5031803;28;20716;-70
2023/12/10 04:20:30;;;;;;;10.50;10.00;;;8.20;99.90;;;;;;5025860;28;20266;-69
2023/12/10 04:22:57;;;;;;;10.30;9.80;;;8.20;99.90;;;;;;5031108;28;20243;-70
2023/12/10 04:25:25;;;;;;;10.40;9.90;;;8.10;99.90;;;;;;5028038;28;20553;-70
2023/12/10 04:27:52;;;;;;;10.00;9.50;;;8.00;99.90;;;;;;5032237;28;20184;-69
2023/12/10 04:30:20;;;;;;;10.10;9.60;;;8.00;99.90;;;;;;5028636;28;20196;-69
2023/12/10 04:32:47;;;;;;;10.10;9.60;;;8.00;99.90;;;;;;5032466;28;20196;-69
2023/12/10 04:35:14;;;;;;;9.60;9.20;;;8.00;99.90;;;;;;5023371;28;20200;-70
2023/12/10 04:37:41;;;;;;;9.90;9.40;;;8.00;99.90;;;;;;5027167;28;20192;-69
2023/12/10 04:40:10;;;;;;;10.00;9.50;;;8.00;99.90;;;;;;5028853;28;20230;-69
2023/12/10 04:42:42;;;;;;;9.70;9.23;;;8.00;99.90;;;;;;5029953;28;20219;-69
2023/12/10 04:45:09;;;;;;;9.50;9.10;;;7.90;99.90;;;;;;5027382;28;20225;-70
2023/12/10 04:47:36;;;;;;;9.40;9.00;;;7.90;99.90;;;;;;5027905;28;20200;-68
2023/12/10 04:50:04;;;;;;;9.50;9.10;;;7.90;99.90;;;;;;5027347;28;20283;-67
2023/12/10 04:52:32;;;;;;;11.20;10.70;;;7.90;99.90;;;;;;5030608;28;20810;-68
2023/12/10 04:54:59;;;;;;;9.17;8.77;;;7.90;99.90;;;;;;5026881;28;20298;-67
2023/12/10 04:57:26;;;;;;;9.43;9.03;;;7.80;99.90;;;;;;5032593;28;20531;-70
2023/12/10 04:59:53;;;;;;;9.00;8.60;;;7.80;99.90;;;;;;5013547;28;20292;-70
2023/12/10 05:02:20;;;;;;;9.40;9.00;;;7.80;99.90;;;;;;5036058;28;20226;-70
2023/12/10 05:04:47;;;;;;;9.20;8.80;;;7.70;1.00;;;;;;5020192;28;20266;-68
2023/12/10 05:07:14;;;;;;;8.93;8.53;;;7.80;1.00;;;;;;5041262;28;20228;-66
2023/12/10 05:09:41;;;;;;;8.83;8.43;;;7.80;1.00;;;;;;5038483;28;20199;-66
2023/12/10 05:12:09;;;;;;;8.70;8.30;;;7.80;99.90;;;;;;5024921;28;20230;-66
2023/12/10 05:14:36;;;;;;;8.90;8.50;;;7.70;99.90;;;;;;5027731;28;20607;-66
2023/12/10 05:17:03;;;;;;;8.90;8.50;;;7.70;99.90;;;;;;5044327;28;20192;-66
2023/12/10 05:19:31;;;;;;;8.70;8.30;;;7.70;99.90;;;;;;5038918;28;20536;-65
2023/12/10 05:21:58;;;;;;;8.70;8.30;;;7.70;99.90;;;;;;5027210;28;20590;-65
2023/12/10 05:24:25;;;;;;;8.70;8.30;;;7.70;99.90;;;;;;5022725;28;20245;-66
2023/12/10 05:26:52;;;;;;;8.60;8.20;;;7.80;99.90;;;;;;5024545;28;20239;-65
2023/12/10 05:29:19;;;;;;;8.60;8.20;;;7.70;99.90;;;;;;5024237;28;20204;-65
2023/12/10 05:31:46;;;;;;;8.50;8.10;;;7.70;99.90;;;;;;5002071;28;20200;-65
2023/12/10 05:34:13;;;;;;;8.50;8.10;;;7.70;99.90;;;;;;5022491;28;20699;-65
2023/12/10 05:36:40;;;;;;;8.47;8.07;;;7.80;99.90;;;;;;5032419;28;20212;-69
2023/12/10 05:39:08;;;;;;;8.40;8.00;;;7.70;99.90;;;;;;5020431;28;20282;-69
2023/12/10 05:41:35;;;;;;;7.90;7.60;;;7.70;99.90;;;;;;5039498;28;20679;-68
2023/12/10 05:44:02;;;;;;;8.20;7.80;;;7.70;99.90;;;;;;5031446;28;20195;-69
2023/12/10 05:46:29;;;;;;;8.10;7.70;;;7.70;99.90;;;;;;5054394;28;20190;-68
2023/12/10 05:48:57;;;;;;;7.70;7.40;;;7.70;99.90;;;;;;5036893;28;20188;-70
2023/12/10 05:51:24;;;;;;;7.60;7.30;;;7.70;99.90;;;;;;5030501;28;20200;-69
2023/12/10 05:53:51;;;;;;;7.60;7.30;;;7.70;99.90;;;;;;5003319;28;20196;-69
2023/12/10 05:56:18;;;;;;;7.57;7.27;;;7.70;99.90;;;;;;5029242;28;20762;-67
2023/12/10 05:58:45;;;;;;;7.43;7.13;;;7.70;99.90;;;;;;5004153;28;20211;-67
2023/12/10 06:01:12;;;;;;;7.60;7.30;;;7.70;99.90;;;;;;5023500;28;20200;-67
2023/12/10 06:03:40;;;;;;;7.53;7.23;;;7.70;99.90;;;;;;5027302;28;20203;-67
2023/12/10 06:06:07;;;;;;;7.30;7.00;;;7.60;99.90;;;;;;5041389;28;20716;-67
2023/12/10 06:08:34;;;;;;;7.30;7.00;;;7.70;99.90;;;;;;5023866;28;20563;-68
2023/12/10 06:11:01;;;;;;;7.60;7.30;;;7.70;99.90;;;;;;5028386;28;20208;-68
2023/12/10 06:13:28;;;;;;;7.80;7.50;;;7.70;99.90;;;;;;5041173;28;20226;-69
2023/12/10 06:15:56;;;;;;;8.20;7.80;;;7.70;99.90;;;;;;5038127;28;20200;-68
2023/12/10 06:18:23;;;;;;;7.70;7.40;;;7.70;99.90;;;;;;5033040;28;20200;-69
2023/12/10 06:20:50;;;;;;;7.50;7.20;;;7.60;99.90;;;;;;5030632;28;20200;-68
2023/12/10 06:23:17;;;;;;;7.60;7.30;;;7.70;99.90;;;;;;5028898;28;20283;-68
2023/12/10 06:25:44;;;;;;;7.67;7.37;;;7.60;99.90;;;;;;5021183;28;20247;-67
2023/12/10 06:28:12;;;;;;;7.40;7.10;;;7.60;99.90;;;;;;5027705;28;20188;-69
2023/12/10 06:30:39;;;;;;;7.27;6.97;;;7.60;99.90;;;;;;5042039;28;20201;-69
2023/12/10 06:33:06;;;;;;;7.43;7.13;;;7.60;99.90;;;;;;5036506;28;20200;-68
2023/12/10 06:35:33;;;;;;;7.60;7.30;;;7.60;99.90;;;;;;5041657;28;20276;-68
2023/12/10 06:38:00;;;;;;;7.40;7.10;;;7.60;99.90;;;;;;5035001;28;20273;-68
2023/12/10 06:40:27;;;;;;;7.30;7.00;;;7.60;99.90;;;;;;5033231;28;20205;-67
2023/12/10 06:42:54;;;;;;;7.80;7.50;;;7.60;99.90;;;;;;5027464;28;20212;-68
2023/12/10 06:45:21;;;;;;;7.57;7.27;;;7.60;99.90;;;;;;5036072;28;20251;-67
2023/12/10 06:47:48;;;;;;;7.80;7.50;;;7.60;99.90;;;;;;5035213;28;20265;-64
2023/12/10 06:50:15;;;;;;;7.80;7.50;;;7.60;99.90;;;;;;5024936;28;20189;-66
2023/12/10 06:52:42;;;;;;;7.90;7.60;;;7.60;99.90;;;;;;5033083;28;20578;-66
2023/12/10 06:55:10;;;;;;;7.93;7.60;;;7.70;99.90;;;;;;5032562;28;20276;-66
2023/12/10 06:57:37;;;;;;;7.80;7.50;;;7.70;99.90;;;;;;5029214;28;20334;-67
2023/12/10 07:00:05;;;;;;;7.50;7.20;;;7.60;99.90;;;;;;5035128;28;20672;-67
2023/12/10 07:02:32;;;;;;;7.70;7.40;;;7.60;99.90;;;;;;5028526;28;20220;-67
2023/12/10 07:04:59;;;;;;;7.43;7.13;;;7.70;99.90;;;;;;5032873;28;20292;-67
2023/12/10 07:07:26;;;;;;;7.60;7.30;;;7.70;99.90;;;;;;5032358;28;20635;-66
2023/12/10 07:09:53;;;;;;;7.40;7.10;;;7.70;99.90;;;;;;5035561;28;20214;-66
2023/12/10 07:12:20;;;;;;;7.50;7.20;;;7.70;99.90;;;;;;5024562;28;20244;-66
2023/12/10 07:14:47;;;;;;;7.50;7.20;;;7.70;99.90;;;;;;5036337;28;20215;-67
2023/12/10 07:17:17;;;;;;;7.70;7.40;;;7.60;99.90;;;;;;5036362;28;20278;-66
2023/12/10 07:19:44;;;;;;;7.60;7.30;;;7.60;99.90;;;;;;5030908;28;20196;-66
2023/12/10 07:22:11;;;;;;;7.83;7.53;;;7.70;99.90;;;;;;5029869;28;20196;-67
2023/12/10 07:24:38;;;;;;;8.40;8.00;;;7.70;99.90;;;;;;5024228;28;20431;-65
2023/12/10 07:27:06;;;;;;;8.40;8.00;;;7.80;99.90;;;;;;5025907;28;20227;-67
2023/12/10 07:29:33;;;;;;;8.03;7.63;;;7.70;99.90;;;;;;5032821;28;20199;-68
2023/12/10 07:32:00;;;;;;;8.20;7.80;;;7.70;99.90;;;;;;5043133;28;20191;-69
2023/12/10 07:34:27;;;;;;;8.27;7.87;;;7.80;99.90;;;;;;5043805;28;20250;-70
2023/12/10 07:36:54;;;;;;;7.80;7.50;;;7.70;99.90;;;;;;5031913;28;20196;-69
2023/12/10 07:39:21;;;;;;;7.90;7.60;;;7.70;99.90;;;;;;5029701;28;20194;-69
2023/12/10 07:41:48;;;;;;;8.40;8.00;;;7.80;99.90;;;;;;5028199;28;20208;-68
2023/12/10 07:44:15;;;;;;;8.30;7.90;;;7.80;99.90;;;;;;5019042;28;20220;-68
2023/12/10 07:46:42;;;;;;;8.47;8.07;;;7.80;99.90;;;;;;5017438;28;20550;-69
2023/12/10 07:49:09;;;;;;;8.20;7.80;;;7.90;99.90;;;;;;5018031;28;20669;-69
2023/12/10 07:51:36;;;;;;;8.20;7.80;;;7.80;99.90;;;;;;5041472;28;20278;-68
2023/12/10 07:54:03;;;;;;;8.27;7.87;;;7.80;99.90;;;;;;5023134;28;20191;-70
2023/12/10 07:56:31;;;;;;;8.20;7.80;;;7.90;99.90;;;;;;5027699;28;20204;-68
2023/12/10 07:58:58;;;;;;;8.40;8.00;;;7.80;99.90;;;;;;5023159;28;20224;-69
2023/12/10 08:01:25;;;;;;;8.60;8.20;;;7.80;99.90;;;;;;5020928;28;20200;-68
2023/12/10 08:03:52;;;;;;;8.70;8.30;;;7.90;99.90;;;;;;5032828;28;20311;-69
2023/12/10 08:06:20;;;;;;;8.80;8.40;;;7.90;99.90;;;;;;5023528;28;20209;-68
2023/12/10 08:08:47;;;;;;;9.10;8.70;;;7.90;99.90;;;;;;5027688;28;20661;-69
2023/12/10 08:11:14;;;;;;;9.00;8.60;;;8.00;99.90;;;;;;5044395;28;20193;-68
2023/12/10 08:13:41;;;;;;;9.20;8.80;;;8.00;99.90;;;;;;5026861;28;20210;-70
2023/12/10 08:16:08;;;;;;;9.27;8.87;;;8.00;99.90;;;;;;5028744;28;20196;-68
2023/12/10 08:18:35;;;;;;;9.30;8.90;;;8.10;99.90;;;;;;5018486;28;20251;-68
2023/12/10 08:21:03;;;;;;;9.53;9.13;;;8.10;99.90;;;;;;5030259;28;20192;-68
2023/12/10 08:23:30;;;;;;;9.60;9.20;;;8.20;99.90;;;;;;5028492;28;20586;-69
2023/12/10 08:25:57;;;;;;;10.13;9.63;;;8.30;99.90;;;;;;5012745;28;20200;-69
2023/12/10 08:28:24;;;;;;;10.17;9.67;;;8.40;99.90;;;;;;5027883;28;20666;-68
2023/12/10 08:30:51;;;;;;;10.60;10.10;;;8.40;99.90;;;;;;5015834;28;20262;-67
2023/12/10 08:33:18;;;;;;;10.90;10.40;;;8.50;99.90;;;;;;5025772;28;20228;-67
2023/12/10 08:35:45;;;;;;;10.80;10.30;;;8.50;99.90;;;;;;5026080;28;20216;-67
2023/12/10 08:38:12;;;;;;;11.00;10.50;;;8.50;99.90;;;;;;5011896;28;20517;-67
2023/12/10 08:40:39;;;;;;;10.70;10.20;;;8.50;99.90;;;;;;5021061;28;20197;-68
2023/12/10 08:43:06;;;;;;;10.80;10.30;;;8.60;99.90;;;;;;5024230;28;20204;-69
2023/12/10 08:45:33;;;;;;;11.10;10.60;;;8.60;99.90;;;;;;5014822;28;20184;-68
2023/12/10 08:48:01;;;;;;;10.80;10.30;;;8.50;99.90;;;;;;5029825;28;20625;-68
2023/12/10 08:50:28;;;;;;;10.93;10.43;;;8.60;99.90;;;;;;5025291;28;20214;-67
2023/12/10 08:52:55;;;;;;;11.00;10.50;;;8.60;99.90;;;;;;5017338;28;20200;-69
2023/12/10 08:55:22;;;;;;;10.87;10.37;;;8.70;99.90;;;;;;5031843;28;20204;-68
2023/12/10 08:57:49;;;;;;;10.60;10.10;;;8.70;99.90;;;;;;5021953;28;20326;-68
2023/12/10 09:00:17;;;;;;;10.90;10.40;;;8.70;99.90;;;;;;5024620;28;20215;-68
2023/12/10 09:02:44;;;;;;;10.73;10.23;;;8.70;99.90;;;;;;5024264;28;20258;-68
2023/12/10 09:05:11;;;;;;;11.20;10.70;;;8.70;99.90;;;;;;4999719;28;20201;-69
2023/12/10 09:07:38;;;;;;;10.80;10.30;;;8.70;99.90;;;;;;5022951;28;20196;-68
2023/12/10 09:10:06;;;;;;;10.97;10.47;;;8.70;99.90;;;;;;5024897;28;20279;-68
2023/12/10 09:12:39;;;;;;;11.20;10.70;;;8.70;99.90;;;;;;5010928;28;20940;-68
2023/12/10 09:15:08;;;;;;;11.10;10.60;;;8.70;99.90;;;;;;5034809;28;20660;-68
2023/12/10 09:17:35;;;;;;;11.70;11.10;;;8.70;99.90;;;;;;5024553;28;20199;-68
2023/12/10 09:20:02;;;;;;;11.00;10.50;;;8.70;99.90;;;;;;5006878;28;20196;-68
2023/12/10 09:22:29;;;;;;;11.70;11.10;;;8.70;99.90;;;;;;5027214;28;20853;-69
2023/12/10 09:24:57;;;;;;;11.20;10.70;;;8.70;99.90;;;;;;5008058;28;20263;-68
2023/12/10 09:27:24;;;;;;;11.00;10.50;;;8.70;99.90;;;;;;5040100;28;20639;-68
2023/12/10 09:29:51;;;;;;;11.70;11.10;;;8.80;99.90;;;;;;5033334;28;20196;-68
2023/12/10 09:32:23;;;;;;;11.60;11.00;;;8.80;99.90;;;;;;5029642;28;20816;-68
2023/12/10 09:34:50;;;;;;;11.80;11.20;;;8.80;99.90;;;;;;5006047;28;20196;-69
2023/12/10 09:37:17;;;;;;;12.07;11.47;;;8.80;99.90;;;;;;5035169;28;20283;-68
2023/12/10 09:39:44;;;;;;;11.80;11.20;;;8.80;99.90;;;;;;5014766;28;20223;-69
2023/12/10 09:42:12;;;;;;;11.80;11.20;;;8.70;99.90;;;;;;5001780;28;20213;-68
2023/12/10 09:44:39;;;;;;;11.67;11.07;;;8.80;99.90;;;;;;5016619;28;20223;-69
2023/12/10 09:47:11;;;;;;;11.40;10.90;;;8.80;99.90;;;;;;5018009;28;20189;-68
2023/12/10 09:49:41;;;;;;;11.07;10.57;;;8.80;99.90;;;;;;5021804;28;20189;-68
2023/12/10 09:52:10;;;;;;;11.40;10.90;;;8.80;99.90;;;;;;5021967;28;20181;-69
2023/12/10 09:54:40;;;;;;;11.50;11.00;;;8.80;99.90;;;;;;5014384;28;20292;-69
2023/12/10 09:57:08;;;;;;;11.83;11.23;;;8.80;99.90;;;;;;5029364;28;20216;-69
2023/12/10 09:59:36;;;;;;;11.83;11.23;;;8.80;99.90;;;;;;5028939;28;20625;-69
2023/12/10 10:02:05;;;;;;;11.97;11.37;;;8.80;99.90;;;;;;5033700;28;20727;-69
2023/12/10 10:04:32;;;;;;;11.60;11.00;;;8.80;99.90;;;;;;5028794;28;20230;-69
2023/12/10 10:07:05;;;;;;;11.30;10.80;;;8.70;99.90;;;;;;5022459;28;20196;-69
2023/12/10 10:09:36;;;;;;;11.00;10.50;;;8.70;99.90;;;;;;5034466;28;20188;-68
2023/12/10 10:12:05;;;;;;;11.30;10.80;;;8.60;99.90;;;;;;5022382;28;22469;-69
2023/12/10 10:14:33;;;;;;;11.27;10.77;;;8.60;99.90;;;;;;5022007;28;20748;-69
2023/12/10 10:17:00;;;;;;;11.20;10.70;;;8.50;99.90;;;;;;5010788;28;20624;-67
2023/12/10 10:19:27;;;;;;;11.00;10.50;;;8.50;99.90;;;;;;5011008;28;20263;-67
2023/12/10 10:21:55;;;;;;;11.20;10.70;;;8.40;99.90;;;;;;4998963;28;20575;-66
2023/12/10 10:24:22;;;;;;;10.70;10.20;;;8.50;99.90;;;;;;5010963;28;20307;-67
2023/12/10 10:26:52;;;;;;;11.10;10.60;;;8.50;99.90;;;;;;5001751;28;20286;-66
2023/12/10 10:29:22;;;;;;;11.27;10.77;;;8.60;99.90;;;;;;5033339;28;20230;-66
2023/12/10 10:31:52;;;;;;;11.53;10.93;;;8.60;99.90;;;;;;5007135;28;20208;-67
2023/12/10 10:34:21;;;;;;;11.60;11.00;;;8.50;99.90;;;;;;5016085;28;20208;-66
2023/12/10 10:36:48;;;;;;;11.30;10.80;;;8.50;99.90;;;;;;5043917;28;20308;-67
2023/12/10 10:39:15;;;;;;;11.30;10.80;;;8.50;99.90;;;;;;5029410;28;20226;-67
2023/12/10 10:41:42;;;;;;;11.30;10.80;;;8.60;99.90;;;;;;5032319;28;20601;-66
2023/12/10 10:44:09;;;;;;;11.20;10.70;;;8.60;99.90;;;;;;5029716;28;20218;-67
2023/12/10 10:46:37;;;;;;;11.10;10.60;;;8.60;99.90;;;;;;5014958;28;20965;-66
2023/12/10 10:49:04;;;;;;;11.30;10.80;;;8.60;99.90;;;;;;5029549;28;20298;-67
2023/12/10 10:51:32;;;;;;;11.37;10.87;;;8.60;99.90;;;;;;5021662;28;20197;-66
2023/12/10 10:54:03;;;;;;;11.53;11.00;;;8.60;99.90;;;;;;5034036;28;20218;-66
2023/12/10 10:56:32;;;;;;;11.37;10.87;;;8.70;99.90;;;;;;5030217;28;20627;-66
2023/12/10 10:59:00;;;;;;;11.63;11.03;;;8.70;99.90;;;;;;5034738;28;20200;-69
2023/12/10 11:01:41;;;;;;;11.70;11.10;;;8.80;99.90;;;;;;5027736;28;20200;-69
2023/12/10 11:04:14;;;;;;;11.17;10.67;;;8.90;99.90;;;;;;5020321;28;20204;-69
2023/12/10 11:06:45;;;;;;;11.10;10.60;;;8.90;99.90;;;;;;5042090;28;20216;-70
2023/12/10 11:09:12;;;;;;;11.20;10.70;;;8.90;99.90;;;;;;5027216;28;20637;-69
2023/12/10 11:11:40;;;;;;;11.17;10.67;;;8.90;99.90;;;;;;5030867;28;20338;-70
2023/12/10 11:14:22;;;;;;;11.17;10.67;;;9.00;99.90;;;;;;5028346;28;20521;-69
2023/12/10 11:17:02;;;;;;;11.30;10.80;;;9.00;99.90;;;;;;5025900;28;20207;-69
2023/12/10 11:19:31;;;;;;;11.20;10.70;;;9.00;99.90;;;;;;5021688;28;20207;-69
2023/12/10 11:21:59;;;;;;;11.30;10.80;;;9.00;99.90;;;;;;5035407;28;20280;-70
2023/12/10 11:24:26;;;;;;;11.57;11.00;;;9.10;99.90;;;;;;5029732;28;20714;-69
2023/12/10 11:26:53;;;;;;;11.57;11.03;;;9.00;99.90;;;;;;5020645;28;20216;-67
2023/12/10 11:29:21;;;;;;;11.50;11.00;;;9.10;99.90;;;;;;5021067;28;20613;-67
2023/12/10 11:31:48;;;;;;;11.57;11.03;;;9.10;99.90;;;;;;5037531;28;20527;-67
2023/12/10 11:34:15;;;;;;;11.90;11.30;;;9.10;99.90;;;;;;5031501;28;20729;-67
2023/12/10 11:36:49;;;;;;;11.57;11.07;;;9.10;99.90;;;;;;5023615;28;20188;-66
2023/12/10 11:39:17;;;;;;;11.87;11.27;;;9.10;99.90;;;;;;5027067;28;20197;-67
2023/12/10 11:41:44;;;;;;;11.53;11.03;;;9.10;99.90;;;;;;5019152;28;20308;-67
2023/12/10 11:44:26;;;;;;;11.50;11.00;;;9.10;99.90;;;;;;5033551;28;20548;-67
2023/12/10 11:46:54;;;;;;;11.73;11.13;;;9.10;99.90;;;;;;5027088;28;20271;-67
2023/12/10 11:49:25;;;;;;;11.40;10.90;;;9.10;99.90;;;;;;5023400;28;20268;-66
2023/12/10 11:51:52;;;;;;;11.70;11.10;;;9.10;99.90;;;;;;5014521;28;20299;-67
2023/12/10 11:54:20;;;;;;;11.40;10.90;;;9.20;99.90;;;;;;5033701;28;20255;-67
2023/12/10 11:56:47;;;;;;;11.90;11.30;;;9.20;99.90;;;;;;5034782;28;20216;-66
2023/12/10 11:59:15;;;;;;;11.93;11.33;;;9.20;99.90;;;;;;5015521;28;20208;-68
2023/12/10 12:01:46;;;;;;;11.80;11.20;;;9.20;99.90;;;;;;5030234;28;20204;-69
2023/12/10 12:04:15;;;;;;;12.17;11.57;;;9.20;99.90;;;;;;5025198;28;20235;-74
2023/12/10 12:06:45;;;;;;;12.40;11.80;;;9.20;99.90;;;;;;5040251;28;20290;-70
2023/12/10 12:09:20;;;;;;;12.10;11.50;;;9.30;99.90;;;;;;5017796;28;20203;-67
2023/12/10 12:11:49;;;;;;;12.40;11.80;;;9.40;99.90;;;;;;5026951;28;20675;-67
2023/12/10 12:14:16;;;;;;;12.13;11.53;;;9.50;99.90;;;;;;5015987;28;20204;-67
2023/12/10 12:16:45;;;;;;;11.80;11.20;;;9.60;99.90;;;;;;5025517;28;20203;-66
2023/12/10 12:19:27;;;;;;;11.63;11.03;;;9.80;99.90;;;;;;5034667;28;20213;-66
2023/12/10 12:21:57;;;;;;;12.10;11.50;;;10.50;99.90;;;;;;5034245;28;20196;-66
2023/12/10 12:24:24;;;;;;;12.17;11.57;;;11.70;99.90;;;;;;5025774;28;20207;-67
2023/12/10 12:26:51;;;;;;;12.60;12.00;;;12.70;99.90;;;;;;5030542;28;20204;-67
2023/12/10 12:29:18;;;;;;;12.57;11.97;;;12.90;99.90;;;;;;5021487;28;20185;-67
2023/12/10 12:31:45;;;;;;;13.23;12.53;;;12.50;99.90;;;;;;5016272;28;20510;-66
2023/12/10 12:34:32;;;;;;;13.10;12.40;;;11.90;99.90;;;;;;5016598;28;20698;-67
2023/12/10 12:37:00;;;;;;;12.77;12.17;;;11.60;99.90;;;;;;5028973;28;20202;-70
2023/12/10 12:39:27;;;;;;;13.40;12.70;;;11.20;99.90;;;;;;5016433;28;20227;-70
2023/12/10 12:41:54;;;;;;;13.30;12.60;;;11.10;99.90;;;;;;5024131;28;20200;-70
2023/12/10 12:44:21;;;;;;;13.30;12.60;;;11.20;99.90;;;;;;5028714;28;20209;-69
2023/12/10 12:46:48;;;;;;;13.30;12.60;;;11.50;99.90;;;;;;5041761;28;20187;-69
2023/12/10 12:49:19;;;;;;;13.23;12.53;;;11.30;99.90;;;;;;5033977;28;20289;-69